<?xml version="1.0" encoding="UTF-8" standalone="no" ?>
<gpx xmlns="http://www.topografix.com/GPX/1/1" xmlns:xsi="http://www.w3.org/2001/XMLSchema-instance" xsi:schemaLocation="http://www.topografix.com/GPX/1/1 http://www.topografix.com/GPX/1/1/gpx.xsd" version="1.1" creator="VisuGPX - https://www.visugpx.com">
  <metadata>
    <name>Jogging Cora 17.06.2015</name>
    <desc><![CDATA[reconnaissance tracé Cora du 15.06.2015]]></desc>
  </metadata>
  <trk>
    <name><![CDATA[Monéteau Course à pied]]></name>
    <trkseg>
      <trkpt lat="47.8422" lon="3.55255">
        <ele>96.5</ele>
        <time>2015-06-15T16:35:51.000Z</time>
      </trkpt>
      <trkpt lat="47.84217" lon="3.55246">
        <ele>97</ele>
        <time>2015-06-15T16:35:53.000Z</time>
      </trkpt>
      <trkpt lat="47.84211" lon="3.55244">
        <ele>96.9</ele>
        <time>2015-06-15T16:35:54.000Z</time>
      </trkpt>
      <trkpt lat="47.8421" lon="3.55236">
        <ele>97.1</ele>
        <time>2015-06-15T16:35:57.000Z</time>
      </trkpt>
      <trkpt lat="47.84206" lon="3.5523">
        <ele>97</ele>
        <time>2015-06-15T16:35:58.000Z</time>
      </trkpt>
      <trkpt lat="47.84192" lon="3.5521">
        <ele>95.9</ele>
        <time>2015-06-15T16:35:59.000Z</time>
      </trkpt>
      <trkpt lat="47.84181" lon="3.5526">
        <ele>95.2</ele>
        <time>2015-06-15T16:36:00.000Z</time>
      </trkpt>
      <trkpt lat="47.84216" lon="3.55218">
        <ele>98.3</ele>
        <time>2015-06-15T16:36:02.000Z</time>
      </trkpt>
      <trkpt lat="47.84215" lon="3.55216">
        <ele>98.2</ele>
        <time>2015-06-15T16:36:03.000Z</time>
      </trkpt>
      <trkpt lat="47.84205" lon="3.55221">
        <ele>97.1</ele>
        <time>2015-06-15T16:36:04.000Z</time>
      </trkpt>
      <trkpt lat="47.84202" lon="3.55221">
        <ele>96.9</ele>
        <time>2015-06-15T16:36:06.000Z</time>
      </trkpt>
      <trkpt lat="47.84207" lon="3.55185">
        <ele>97.1</ele>
        <time>2015-06-15T16:36:19.000Z</time>
      </trkpt>
      <trkpt lat="47.84202" lon="3.55143">
        <ele>97.4</ele>
        <time>2015-06-15T16:36:30.000Z</time>
      </trkpt>
      <trkpt lat="47.84196" lon="3.55125">
        <ele>98.1</ele>
        <time>2015-06-15T16:36:36.000Z</time>
      </trkpt>
      <trkpt lat="47.84194" lon="3.55124">
        <ele>98</ele>
        <time>2015-06-15T16:36:37.000Z</time>
      </trkpt>
      <trkpt lat="47.84192" lon="3.55124">
        <ele>98</ele>
        <time>2015-06-15T16:36:38.000Z</time>
      </trkpt>
      <trkpt lat="47.8419" lon="3.55124">
        <ele>97.9</ele>
        <time>2015-06-15T16:36:39.000Z</time>
      </trkpt>
      <trkpt lat="47.84188" lon="3.55124">
        <ele>97.8</ele>
        <time>2015-06-15T16:36:40.000Z</time>
      </trkpt>
      <trkpt lat="47.84184" lon="3.55124">
        <ele>97.7</ele>
        <time>2015-06-15T16:36:41.000Z</time>
      </trkpt>
      <trkpt lat="47.84182" lon="3.55125">
        <ele>97.5</ele>
        <time>2015-06-15T16:36:42.000Z</time>
      </trkpt>
      <trkpt lat="47.84179" lon="3.55126">
        <ele>97.3</ele>
        <time>2015-06-15T16:36:43.000Z</time>
      </trkpt>
      <trkpt lat="47.84151" lon="3.55133">
        <ele>96.6</ele>
        <time>2015-06-15T16:36:54.000Z</time>
      </trkpt>
      <trkpt lat="47.84126" lon="3.55128">
        <ele>97.2</ele>
        <time>2015-06-15T16:37:04.000Z</time>
      </trkpt>
      <trkpt lat="47.84117" lon="3.55095">
        <ele>97.4</ele>
        <time>2015-06-15T16:37:16.000Z</time>
      </trkpt>
      <trkpt lat="47.84122" lon="3.55085">
        <ele>96.5</ele>
        <time>2015-06-15T16:37:22.000Z</time>
      </trkpt>
      <trkpt lat="47.84141" lon="3.55065">
        <ele>97.1</ele>
        <time>2015-06-15T16:37:33.000Z</time>
      </trkpt>
      <trkpt lat="47.84152" lon="3.55051">
        <ele>96.8</ele>
        <time>2015-06-15T16:37:41.000Z</time>
      </trkpt>
      <trkpt lat="47.84151" lon="3.55047">
        <ele>96.7</ele>
        <time>2015-06-15T16:37:42.000Z</time>
      </trkpt>
      <trkpt lat="47.8415" lon="3.55044">
        <ele>96.6</ele>
        <time>2015-06-15T16:37:43.000Z</time>
      </trkpt>
      <trkpt lat="47.84149" lon="3.5504">
        <ele>96.5</ele>
        <time>2015-06-15T16:37:44.000Z</time>
      </trkpt>
      <trkpt lat="47.84147" lon="3.55037">
        <ele>96.3</ele>
        <time>2015-06-15T16:37:45.000Z</time>
      </trkpt>
      <trkpt lat="47.84146" lon="3.55034">
        <ele>96.2</ele>
        <time>2015-06-15T16:37:46.000Z</time>
      </trkpt>
      <trkpt lat="47.84144" lon="3.55031">
        <ele>96.1</ele>
        <time>2015-06-15T16:37:47.000Z</time>
      </trkpt>
      <trkpt lat="47.84143" lon="3.55013">
        <ele>96</ele>
        <time>2015-06-15T16:37:55.000Z</time>
      </trkpt>
      <trkpt lat="47.84133" lon="3.54987">
        <ele>96.1</ele>
        <time>2015-06-15T16:38:03.000Z</time>
      </trkpt>
      <trkpt lat="47.84121" lon="3.54953">
        <ele>96.6</ele>
        <time>2015-06-15T16:38:10.000Z</time>
      </trkpt>
      <trkpt lat="47.84112" lon="3.54925">
        <ele>97</ele>
        <time>2015-06-15T16:38:18.000Z</time>
      </trkpt>
      <trkpt lat="47.84105" lon="3.54891">
        <ele>98.6</ele>
        <time>2015-06-15T16:38:26.000Z</time>
      </trkpt>
      <trkpt lat="47.84096" lon="3.54854">
        <ele>99.1</ele>
        <time>2015-06-15T16:38:33.000Z</time>
      </trkpt>
      <trkpt lat="47.84084" lon="3.54826">
        <ele>99</ele>
        <time>2015-06-15T16:38:40.000Z</time>
      </trkpt>
      <trkpt lat="47.84068" lon="3.54801">
        <ele>99.2</ele>
        <time>2015-06-15T16:38:47.000Z</time>
      </trkpt>
      <trkpt lat="47.8405" lon="3.54776">
        <ele>99.8</ele>
        <time>2015-06-15T16:38:54.000Z</time>
      </trkpt>
      <trkpt lat="47.84034" lon="3.54755">
        <ele>99.9</ele>
        <time>2015-06-15T16:39:01.000Z</time>
      </trkpt>
      <trkpt lat="47.84023" lon="3.54737">
        <ele>99.8</ele>
        <time>2015-06-15T16:39:08.000Z</time>
      </trkpt>
      <trkpt lat="47.84024" lon="3.54733">
        <ele>99.8</ele>
        <time>2015-06-15T16:39:09.000Z</time>
      </trkpt>
      <trkpt lat="47.84025" lon="3.54729">
        <ele>99.9</ele>
        <time>2015-06-15T16:39:10.000Z</time>
      </trkpt>
      <trkpt lat="47.84027" lon="3.54726">
        <ele>100</ele>
        <time>2015-06-15T16:39:11.000Z</time>
      </trkpt>
      <trkpt lat="47.84028" lon="3.54723">
        <ele>100</ele>
        <time>2015-06-15T16:39:12.000Z</time>
      </trkpt>
      <trkpt lat="47.84031" lon="3.54721">
        <ele>100</ele>
        <time>2015-06-15T16:39:13.000Z</time>
      </trkpt>
      <trkpt lat="47.84034" lon="3.54718">
        <ele>100</ele>
        <time>2015-06-15T16:39:14.000Z</time>
      </trkpt>
      <trkpt lat="47.84037" lon="3.54715">
        <ele>100.1</ele>
        <time>2015-06-15T16:39:15.000Z</time>
      </trkpt>
      <trkpt lat="47.84039" lon="3.54712">
        <ele>100.1</ele>
        <time>2015-06-15T16:39:16.000Z</time>
      </trkpt>
      <trkpt lat="47.84059" lon="3.54701">
        <ele>100.8</ele>
        <time>2015-06-15T16:39:24.000Z</time>
      </trkpt>
      <trkpt lat="47.84075" lon="3.54691">
        <ele>101.1</ele>
        <time>2015-06-15T16:39:33.000Z</time>
      </trkpt>
      <trkpt lat="47.84092" lon="3.54675">
        <ele>102</ele>
        <time>2015-06-15T16:39:41.000Z</time>
      </trkpt>
      <trkpt lat="47.84111" lon="3.54657">
        <ele>103.3</ele>
        <time>2015-06-15T16:39:49.000Z</time>
      </trkpt>
      <trkpt lat="47.84129" lon="3.54642">
        <ele>105.7</ele>
        <time>2015-06-15T16:39:57.000Z</time>
      </trkpt>
      <trkpt lat="47.84144" lon="3.54622">
        <ele>108.2</ele>
        <time>2015-06-15T16:40:06.000Z</time>
      </trkpt>
      <trkpt lat="47.84162" lon="3.54609">
        <ele>110.6</ele>
        <time>2015-06-15T16:40:15.000Z</time>
      </trkpt>
      <trkpt lat="47.8418" lon="3.54599">
        <ele>112.6</ele>
        <time>2015-06-15T16:40:25.000Z</time>
      </trkpt>
      <trkpt lat="47.84185" lon="3.54592">
        <ele>113.4</ele>
        <time>2015-06-15T16:40:29.000Z</time>
      </trkpt>
      <trkpt lat="47.84186" lon="3.54589">
        <ele>113.7</ele>
        <time>2015-06-15T16:40:30.000Z</time>
      </trkpt>
      <trkpt lat="47.84186" lon="3.54586">
        <ele>113.9</ele>
        <time>2015-06-15T16:40:31.000Z</time>
      </trkpt>
      <trkpt lat="47.84186" lon="3.54582">
        <ele>114.2</ele>
        <time>2015-06-15T16:40:32.000Z</time>
      </trkpt>
      <trkpt lat="47.84186" lon="3.54579">
        <ele>114.4</ele>
        <time>2015-06-15T16:40:33.000Z</time>
      </trkpt>
      <trkpt lat="47.84182" lon="3.5456">
        <ele>115.3</ele>
        <time>2015-06-15T16:40:42.000Z</time>
      </trkpt>
      <trkpt lat="47.84176" lon="3.5456">
        <ele>114.7</ele>
        <time>2015-06-15T16:40:47.000Z</time>
      </trkpt>
      <trkpt lat="47.84175" lon="3.54561">
        <ele>114.5</ele>
        <time>2015-06-15T16:40:48.000Z</time>
      </trkpt>
      <trkpt lat="47.84174" lon="3.54561">
        <ele>114.4</ele>
        <time>2015-06-15T16:40:49.000Z</time>
      </trkpt>
      <trkpt lat="47.84176" lon="3.54554">
        <ele>115.1</ele>
        <time>2015-06-15T16:40:53.000Z</time>
      </trkpt>
      <trkpt lat="47.84178" lon="3.54551">
        <ele>115.4</ele>
        <time>2015-06-15T16:40:54.000Z</time>
      </trkpt>
      <trkpt lat="47.8418" lon="3.54548">
        <ele>115.7</ele>
        <time>2015-06-15T16:40:55.000Z</time>
      </trkpt>
      <trkpt lat="47.84181" lon="3.54546">
        <ele>115.9</ele>
        <time>2015-06-15T16:40:56.000Z</time>
      </trkpt>
      <trkpt lat="47.84182" lon="3.54545">
        <ele>116</ele>
        <time>2015-06-15T16:40:57.000Z</time>
      </trkpt>
      <trkpt lat="47.84179" lon="3.54547">
        <ele>115.6</ele>
        <time>2015-06-15T16:41:00.000Z</time>
      </trkpt>
      <trkpt lat="47.84177" lon="3.54547">
        <ele>115.4</ele>
        <time>2015-06-15T16:41:01.000Z</time>
      </trkpt>
      <trkpt lat="47.84175" lon="3.54549">
        <ele>115.1</ele>
        <time>2015-06-15T16:41:02.000Z</time>
      </trkpt>
      <trkpt lat="47.84174" lon="3.54551">
        <ele>115</ele>
        <time>2015-06-15T16:41:04.000Z</time>
      </trkpt>
      <trkpt lat="47.84174" lon="3.54553">
        <ele>114.9</ele>
        <time>2015-06-15T16:41:06.000Z</time>
      </trkpt>
      <trkpt lat="47.84175" lon="3.54552">
        <ele>115</ele>
        <time>2015-06-15T16:41:07.000Z</time>
      </trkpt>
      <trkpt lat="47.84177" lon="3.54549">
        <ele>115.3</ele>
        <time>2015-06-15T16:41:09.000Z</time>
      </trkpt>
      <trkpt lat="47.84179" lon="3.54547">
        <ele>115.6</ele>
        <time>2015-06-15T16:41:10.000Z</time>
      </trkpt>
      <trkpt lat="47.8418" lon="3.54545">
        <ele>115.8</ele>
        <time>2015-06-15T16:41:11.000Z</time>
      </trkpt>
      <trkpt lat="47.84181" lon="3.54543">
        <ele>116</ele>
        <time>2015-06-15T16:41:12.000Z</time>
      </trkpt>
      <trkpt lat="47.84183" lon="3.54542">
        <ele>116.2</ele>
        <time>2015-06-15T16:41:13.000Z</time>
      </trkpt>
      <trkpt lat="47.84184" lon="3.54541">
        <ele>116.4</ele>
        <time>2015-06-15T16:41:14.000Z</time>
      </trkpt>
      <trkpt lat="47.84185" lon="3.5454">
        <ele>116.6</ele>
        <time>2015-06-15T16:41:15.000Z</time>
      </trkpt>
      <trkpt lat="47.84186" lon="3.54539">
        <ele>116.7</ele>
        <time>2015-06-15T16:41:16.000Z</time>
      </trkpt>
      <trkpt lat="47.84196" lon="3.54514">
        <ele>119.1</ele>
        <time>2015-06-15T16:41:27.000Z</time>
      </trkpt>
      <trkpt lat="47.84205" lon="3.5448">
        <ele>123.4</ele>
        <time>2015-06-15T16:41:37.000Z</time>
      </trkpt>
      <trkpt lat="47.84214" lon="3.5445">
        <ele>125.9</ele>
        <time>2015-06-15T16:41:49.000Z</time>
      </trkpt>
      <trkpt lat="47.84224" lon="3.5442">
        <ele>129.8</ele>
        <time>2015-06-15T16:42:00.000Z</time>
      </trkpt>
      <trkpt lat="47.84224" lon="3.54418">
        <ele>130.2</ele>
        <time>2015-06-15T16:42:01.000Z</time>
      </trkpt>
      <trkpt lat="47.84231" lon="3.54396">
        <ele>132.2</ele>
        <time>2015-06-15T16:42:17.000Z</time>
      </trkpt>
      <trkpt lat="47.84232" lon="3.54393">
        <ele>132.5</ele>
        <time>2015-06-15T16:42:19.000Z</time>
      </trkpt>
      <trkpt lat="47.84232" lon="3.54392">
        <ele>132.6</ele>
        <time>2015-06-15T16:42:20.000Z</time>
      </trkpt>
      <trkpt lat="47.84244" lon="3.54363">
        <ele>134.5</ele>
        <time>2015-06-15T16:42:32.000Z</time>
      </trkpt>
      <trkpt lat="47.84256" lon="3.54331">
        <ele>135.2</ele>
        <time>2015-06-15T16:42:40.000Z</time>
      </trkpt>
      <trkpt lat="47.84269" lon="3.54301">
        <ele>135.7</ele>
        <time>2015-06-15T16:42:48.000Z</time>
      </trkpt>
      <trkpt lat="47.8428" lon="3.5427">
        <ele>136</ele>
        <time>2015-06-15T16:42:56.000Z</time>
      </trkpt>
      <trkpt lat="47.84289" lon="3.54243">
        <ele>136.5</ele>
        <time>2015-06-15T16:43:03.000Z</time>
      </trkpt>
      <trkpt lat="47.84299" lon="3.54217">
        <ele>137</ele>
        <time>2015-06-15T16:43:10.000Z</time>
      </trkpt>
      <trkpt lat="47.84311" lon="3.54191">
        <ele>137</ele>
        <time>2015-06-15T16:43:18.000Z</time>
      </trkpt>
      <trkpt lat="47.84315" lon="3.54181">
        <ele>137</ele>
        <time>2015-06-15T16:43:21.000Z</time>
      </trkpt>
      <trkpt lat="47.84315" lon="3.54177">
        <ele>137</ele>
        <time>2015-06-15T16:43:22.000Z</time>
      </trkpt>
      <trkpt lat="47.84317" lon="3.54173">
        <ele>137</ele>
        <time>2015-06-15T16:43:23.000Z</time>
      </trkpt>
      <trkpt lat="47.84328" lon="3.54149">
        <ele>137</ele>
        <time>2015-06-15T16:43:30.000Z</time>
      </trkpt>
      <trkpt lat="47.84338" lon="3.54126">
        <ele>137</ele>
        <time>2015-06-15T16:43:37.000Z</time>
      </trkpt>
      <trkpt lat="47.84349" lon="3.54104">
        <ele>137</ele>
        <time>2015-06-15T16:43:44.000Z</time>
      </trkpt>
      <trkpt lat="47.84357" lon="3.54075">
        <ele>137</ele>
        <time>2015-06-15T16:43:52.000Z</time>
      </trkpt>
      <trkpt lat="47.84366" lon="3.54045">
        <ele>137</ele>
        <time>2015-06-15T16:44:00.000Z</time>
      </trkpt>
      <trkpt lat="47.84376" lon="3.54019">
        <ele>137.1</ele>
        <time>2015-06-15T16:44:08.000Z</time>
      </trkpt>
      <trkpt lat="47.84384" lon="3.53995">
        <ele>137.3</ele>
        <time>2015-06-15T16:44:16.000Z</time>
      </trkpt>
      <trkpt lat="47.84393" lon="3.5397">
        <ele>137.8</ele>
        <time>2015-06-15T16:44:25.000Z</time>
      </trkpt>
      <trkpt lat="47.84402" lon="3.53944">
        <ele>138</ele>
        <time>2015-06-15T16:44:36.000Z</time>
      </trkpt>
      <trkpt lat="47.84413" lon="3.53913">
        <ele>138</ele>
        <time>2015-06-15T16:44:47.000Z</time>
      </trkpt>
      <trkpt lat="47.84425" lon="3.53872">
        <ele>138</ele>
        <time>2015-06-15T16:45:01.000Z</time>
      </trkpt>
      <trkpt lat="47.84447" lon="3.53842">
        <ele>138</ele>
        <time>2015-06-15T16:45:11.000Z</time>
      </trkpt>
      <trkpt lat="47.84461" lon="3.53812">
        <ele>138</ele>
        <time>2015-06-15T16:45:22.000Z</time>
      </trkpt>
      <trkpt lat="47.84479" lon="3.53776">
        <ele>138</ele>
        <time>2015-06-15T16:45:34.000Z</time>
      </trkpt>
      <trkpt lat="47.84481" lon="3.53728">
        <ele>138.5</ele>
        <time>2015-06-15T16:45:44.000Z</time>
      </trkpt>
      <trkpt lat="47.84493" lon="3.53689">
        <ele>139</ele>
        <time>2015-06-15T16:45:54.000Z</time>
      </trkpt>
      <trkpt lat="47.84502" lon="3.53647">
        <ele>138.9</ele>
        <time>2015-06-15T16:46:04.000Z</time>
      </trkpt>
      <trkpt lat="47.84515" lon="3.53618">
        <ele>138.9</ele>
        <time>2015-06-15T16:46:15.000Z</time>
      </trkpt>
      <trkpt lat="47.8453" lon="3.53592">
        <ele>139</ele>
        <time>2015-06-15T16:46:25.000Z</time>
      </trkpt>
      <trkpt lat="47.84543" lon="3.53563">
        <ele>139</ele>
        <time>2015-06-15T16:46:37.000Z</time>
      </trkpt>
      <trkpt lat="47.84561" lon="3.53543">
        <ele>139</ele>
        <time>2015-06-15T16:46:48.000Z</time>
      </trkpt>
      <trkpt lat="47.84581" lon="3.53518">
        <ele>139.4</ele>
        <time>2015-06-15T16:47:00.000Z</time>
      </trkpt>
      <trkpt lat="47.84588" lon="3.53483">
        <ele>140</ele>
        <time>2015-06-15T16:47:17.000Z</time>
      </trkpt>
      <trkpt lat="47.84588" lon="3.53481">
        <ele>140</ele>
        <time>2015-06-15T16:47:18.000Z</time>
      </trkpt>
      <trkpt lat="47.84587" lon="3.53468">
        <ele>140.2</ele>
        <time>2015-06-15T16:47:21.000Z</time>
      </trkpt>
      <trkpt lat="47.84591" lon="3.53464">
        <ele>140.3</ele>
        <time>2015-06-15T16:47:24.000Z</time>
      </trkpt>
      <trkpt lat="47.84591" lon="3.53459">
        <ele>140.5</ele>
        <time>2015-06-15T16:47:25.000Z</time>
      </trkpt>
      <trkpt lat="47.84593" lon="3.53447">
        <ele>140.9</ele>
        <time>2015-06-15T16:47:32.000Z</time>
      </trkpt>
      <trkpt lat="47.84594" lon="3.53445">
        <ele>141</ele>
        <time>2015-06-15T16:47:33.000Z</time>
      </trkpt>
      <trkpt lat="47.84594" lon="3.53441">
        <ele>141</ele>
        <time>2015-06-15T16:47:34.000Z</time>
      </trkpt>
      <trkpt lat="47.84591" lon="3.53386">
        <ele>141.3</ele>
        <time>2015-06-15T16:47:45.000Z</time>
      </trkpt>
      <trkpt lat="47.84593" lon="3.53337">
        <ele>142</ele>
        <time>2015-06-15T16:47:56.000Z</time>
      </trkpt>
      <trkpt lat="47.84595" lon="3.533">
        <ele>142.1</ele>
        <time>2015-06-15T16:48:06.000Z</time>
      </trkpt>
      <trkpt lat="47.846" lon="3.53264">
        <ele>142.7</ele>
        <time>2015-06-15T16:48:18.000Z</time>
      </trkpt>
      <trkpt lat="47.84599" lon="3.53261">
        <ele>142.8</ele>
        <time>2015-06-15T16:48:19.000Z</time>
      </trkpt>
      <trkpt lat="47.84599" lon="3.53258">
        <ele>142.8</ele>
        <time>2015-06-15T16:48:20.000Z</time>
      </trkpt>
      <trkpt lat="47.846" lon="3.53248">
        <ele>143</ele>
        <time>2015-06-15T16:48:23.000Z</time>
      </trkpt>
      <trkpt lat="47.846" lon="3.53246">
        <ele>143</ele>
        <time>2015-06-15T16:48:24.000Z</time>
      </trkpt>
      <trkpt lat="47.84599" lon="3.53242">
        <ele>143</ele>
        <time>2015-06-15T16:48:26.000Z</time>
      </trkpt>
      <trkpt lat="47.846" lon="3.5324">
        <ele>143</ele>
        <time>2015-06-15T16:48:27.000Z</time>
      </trkpt>
      <trkpt lat="47.84594" lon="3.53191">
        <ele>143</ele>
        <time>2015-06-15T16:48:38.000Z</time>
      </trkpt>
      <trkpt lat="47.84605" lon="3.53156">
        <ele>143.4</ele>
        <time>2015-06-15T16:48:50.000Z</time>
      </trkpt>
      <trkpt lat="47.84611" lon="3.53117">
        <ele>144</ele>
        <time>2015-06-15T16:49:03.000Z</time>
      </trkpt>
      <trkpt lat="47.84619" lon="3.53075">
        <ele>144</ele>
        <time>2015-06-15T16:49:13.000Z</time>
      </trkpt>
      <trkpt lat="47.84622" lon="3.53036">
        <ele>144</ele>
        <time>2015-06-15T16:49:28.000Z</time>
      </trkpt>
      <trkpt lat="47.84624" lon="3.5303">
        <ele>144</ele>
        <time>2015-06-15T16:49:32.000Z</time>
      </trkpt>
      <trkpt lat="47.84628" lon="3.5302">
        <ele>144.2</ele>
        <time>2015-06-15T16:49:40.000Z</time>
      </trkpt>
      <trkpt lat="47.84628" lon="3.53018">
        <ele>144.2</ele>
        <time>2015-06-15T16:49:41.000Z</time>
      </trkpt>
      <trkpt lat="47.84628" lon="3.53017">
        <ele>144.2</ele>
        <time>2015-06-15T16:49:42.000Z</time>
      </trkpt>
      <trkpt lat="47.84629" lon="3.53015">
        <ele>144.3</ele>
        <time>2015-06-15T16:49:43.000Z</time>
      </trkpt>
      <trkpt lat="47.84629" lon="3.53013">
        <ele>144.3</ele>
        <time>2015-06-15T16:49:44.000Z</time>
      </trkpt>
      <trkpt lat="47.84629" lon="3.53011">
        <ele>144.4</ele>
        <time>2015-06-15T16:49:45.000Z</time>
      </trkpt>
      <trkpt lat="47.84629" lon="3.53009">
        <ele>144.4</ele>
        <time>2015-06-15T16:49:46.000Z</time>
      </trkpt>
      <trkpt lat="47.84629" lon="3.53007">
        <ele>144.5</ele>
        <time>2015-06-15T16:49:47.000Z</time>
      </trkpt>
      <trkpt lat="47.84629" lon="3.53004">
        <ele>144.5</ele>
        <time>2015-06-15T16:49:48.000Z</time>
      </trkpt>
      <trkpt lat="47.84632" lon="3.52986">
        <ele>144.9</ele>
        <time>2015-06-15T16:49:59.000Z</time>
      </trkpt>
      <trkpt lat="47.84631" lon="3.5298">
        <ele>144.9</ele>
        <time>2015-06-15T16:50:00.000Z</time>
      </trkpt>
      <trkpt lat="47.8463" lon="3.52932">
        <ele>145</ele>
        <time>2015-06-15T16:50:11.000Z</time>
      </trkpt>
      <trkpt lat="47.8464" lon="3.52888">
        <ele>145</ele>
        <time>2015-06-15T16:50:23.000Z</time>
      </trkpt>
      <trkpt lat="47.84661" lon="3.52875">
        <ele>145</ele>
        <time>2015-06-15T16:50:33.000Z</time>
      </trkpt>
      <trkpt lat="47.84683" lon="3.52855">
        <ele>145.6</ele>
        <time>2015-06-15T16:50:42.000Z</time>
      </trkpt>
      <trkpt lat="47.84677" lon="3.52805">
        <ele>145.4</ele>
        <time>2015-06-15T16:50:54.000Z</time>
      </trkpt>
      <trkpt lat="47.84674" lon="3.52757">
        <ele>145.3</ele>
        <time>2015-06-15T16:51:04.000Z</time>
      </trkpt>
      <trkpt lat="47.84681" lon="3.52724">
        <ele>144.6</ele>
        <time>2015-06-15T16:51:14.000Z</time>
      </trkpt>
      <trkpt lat="47.84704" lon="3.52708">
        <ele>145.5</ele>
        <time>2015-06-15T16:51:27.000Z</time>
      </trkpt>
      <trkpt lat="47.84722" lon="3.52686">
        <ele>146</ele>
        <time>2015-06-15T16:51:37.000Z</time>
      </trkpt>
      <trkpt lat="47.84745" lon="3.52682">
        <ele>146.8</ele>
        <time>2015-06-15T16:51:46.000Z</time>
      </trkpt>
      <trkpt lat="47.84766" lon="3.52668">
        <ele>147</ele>
        <time>2015-06-15T16:51:57.000Z</time>
      </trkpt>
      <trkpt lat="47.84763" lon="3.52646">
        <ele>146.9</ele>
        <time>2015-06-15T16:52:03.000Z</time>
      </trkpt>
      <trkpt lat="47.84762" lon="3.52642">
        <ele>146.9</ele>
        <time>2015-06-15T16:52:04.000Z</time>
      </trkpt>
      <trkpt lat="47.84762" lon="3.52639">
        <ele>146.9</ele>
        <time>2015-06-15T16:52:05.000Z</time>
      </trkpt>
      <trkpt lat="47.84763" lon="3.52636">
        <ele>146.9</ele>
        <time>2015-06-15T16:52:06.000Z</time>
      </trkpt>
      <trkpt lat="47.84763" lon="3.52633">
        <ele>147</ele>
        <time>2015-06-15T16:52:07.000Z</time>
      </trkpt>
      <trkpt lat="47.84763" lon="3.5263">
        <ele>146.9</ele>
        <time>2015-06-15T16:52:08.000Z</time>
      </trkpt>
      <trkpt lat="47.84762" lon="3.52629">
        <ele>146.8</ele>
        <time>2015-06-15T16:52:09.000Z</time>
      </trkpt>
      <trkpt lat="47.84755" lon="3.52618">
        <ele>146.4</ele>
        <time>2015-06-15T16:52:13.000Z</time>
      </trkpt>
      <trkpt lat="47.84753" lon="3.52615">
        <ele>146.2</ele>
        <time>2015-06-15T16:52:14.000Z</time>
      </trkpt>
      <trkpt lat="47.84752" lon="3.52614">
        <ele>146.2</ele>
        <time>2015-06-15T16:52:15.000Z</time>
      </trkpt>
      <trkpt lat="47.84733" lon="3.52586">
        <ele>145.7</ele>
        <time>2015-06-15T16:52:28.000Z</time>
      </trkpt>
      <trkpt lat="47.84713" lon="3.52554">
        <ele>144.7</ele>
        <time>2015-06-15T16:52:39.000Z</time>
      </trkpt>
      <trkpt lat="47.84701" lon="3.52517">
        <ele>144.5</ele>
        <time>2015-06-15T16:52:50.000Z</time>
      </trkpt>
      <trkpt lat="47.84691" lon="3.5248">
        <ele>143.8</ele>
        <time>2015-06-15T16:53:02.000Z</time>
      </trkpt>
      <trkpt lat="47.84685" lon="3.52434">
        <ele>144.5</ele>
        <time>2015-06-15T16:53:13.000Z</time>
      </trkpt>
      <trkpt lat="47.84678" lon="3.52397">
        <ele>144.9</ele>
        <time>2015-06-15T16:53:23.000Z</time>
      </trkpt>
      <trkpt lat="47.84665" lon="3.52359">
        <ele>144.9</ele>
        <time>2015-06-15T16:53:33.000Z</time>
      </trkpt>
      <trkpt lat="47.84659" lon="3.52326">
        <ele>144.4</ele>
        <time>2015-06-15T16:53:43.000Z</time>
      </trkpt>
      <trkpt lat="47.84656" lon="3.52281">
        <ele>144.8</ele>
        <time>2015-06-15T16:53:53.000Z</time>
      </trkpt>
      <trkpt lat="47.84652" lon="3.52242">
        <ele>145</ele>
        <time>2015-06-15T16:54:02.000Z</time>
      </trkpt>
      <trkpt lat="47.84652" lon="3.52212">
        <ele>145.4</ele>
        <time>2015-06-15T16:54:12.000Z</time>
      </trkpt>
      <trkpt lat="47.84646" lon="3.52171">
        <ele>144.9</ele>
        <time>2015-06-15T16:54:22.000Z</time>
      </trkpt>
      <trkpt lat="47.84643" lon="3.52138">
        <ele>145.5</ele>
        <time>2015-06-15T16:54:31.000Z</time>
      </trkpt>
      <trkpt lat="47.84636" lon="3.52104">
        <ele>144.7</ele>
        <time>2015-06-15T16:54:40.000Z</time>
      </trkpt>
      <trkpt lat="47.84635" lon="3.52074">
        <ele>144.6</ele>
        <time>2015-06-15T16:54:49.000Z</time>
      </trkpt>
      <trkpt lat="47.8463" lon="3.5204">
        <ele>144</ele>
        <time>2015-06-15T16:54:59.000Z</time>
      </trkpt>
      <trkpt lat="47.84629" lon="3.52005">
        <ele>144.2</ele>
        <time>2015-06-15T16:55:08.000Z</time>
      </trkpt>
      <trkpt lat="47.84632" lon="3.51966">
        <ele>145.3</ele>
        <time>2015-06-15T16:55:20.000Z</time>
      </trkpt>
      <trkpt lat="47.84626" lon="3.51921">
        <ele>144.6</ele>
        <time>2015-06-15T16:55:32.000Z</time>
      </trkpt>
      <trkpt lat="47.84621" lon="3.51873">
        <ele>144.1</ele>
        <time>2015-06-15T16:55:44.000Z</time>
      </trkpt>
      <trkpt lat="47.84632" lon="3.5183">
        <ele>145.2</ele>
        <time>2015-06-15T16:55:57.000Z</time>
      </trkpt>
      <trkpt lat="47.84631" lon="3.51777">
        <ele>144.1</ele>
        <time>2015-06-15T16:56:09.000Z</time>
      </trkpt>
      <trkpt lat="47.8464" lon="3.51742">
        <ele>144.8</ele>
        <time>2015-06-15T16:56:19.000Z</time>
      </trkpt>
      <trkpt lat="47.84655" lon="3.51707">
        <ele>145.4</ele>
        <time>2015-06-15T16:56:32.000Z</time>
      </trkpt>
      <trkpt lat="47.84661" lon="3.51672">
        <ele>144.8</ele>
        <time>2015-06-15T16:56:42.000Z</time>
      </trkpt>
      <trkpt lat="47.84677" lon="3.51646">
        <ele>145.9</ele>
        <time>2015-06-15T16:56:51.000Z</time>
      </trkpt>
      <trkpt lat="47.84693" lon="3.51623">
        <ele>146.8</ele>
        <time>2015-06-15T16:56:59.000Z</time>
      </trkpt>
      <trkpt lat="47.84709" lon="3.51597">
        <ele>147.5</ele>
        <time>2015-06-15T16:57:07.000Z</time>
      </trkpt>
      <trkpt lat="47.84722" lon="3.51572">
        <ele>147.6</ele>
        <time>2015-06-15T16:57:16.000Z</time>
      </trkpt>
      <trkpt lat="47.84738" lon="3.51545">
        <ele>148.5</ele>
        <time>2015-06-15T16:57:25.000Z</time>
      </trkpt>
      <trkpt lat="47.84748" lon="3.51513">
        <ele>148.3</ele>
        <time>2015-06-15T16:57:33.000Z</time>
      </trkpt>
      <trkpt lat="47.84762" lon="3.51492">
        <ele>149.1</ele>
        <time>2015-06-15T16:57:42.000Z</time>
      </trkpt>
      <trkpt lat="47.84767" lon="3.51472">
        <ele>148.9</ele>
        <time>2015-06-15T16:57:48.000Z</time>
      </trkpt>
      <trkpt lat="47.84768" lon="3.51468">
        <ele>148.8</ele>
        <time>2015-06-15T16:57:49.000Z</time>
      </trkpt>
      <trkpt lat="47.84774" lon="3.51429">
        <ele>148.1</ele>
        <time>2015-06-15T16:58:00.000Z</time>
      </trkpt>
      <trkpt lat="47.84788" lon="3.514">
        <ele>148.5</ele>
        <time>2015-06-15T16:58:11.000Z</time>
      </trkpt>
      <trkpt lat="47.84799" lon="3.51367">
        <ele>148.5</ele>
        <time>2015-06-15T16:58:22.000Z</time>
      </trkpt>
      <trkpt lat="47.84813" lon="3.51322">
        <ele>148.4</ele>
        <time>2015-06-15T16:58:31.000Z</time>
      </trkpt>
      <trkpt lat="47.84818" lon="3.51276">
        <ele>147.3</ele>
        <time>2015-06-15T16:58:40.000Z</time>
      </trkpt>
      <trkpt lat="47.84833" lon="3.51231">
        <ele>147.3</ele>
        <time>2015-06-15T16:58:52.000Z</time>
      </trkpt>
      <trkpt lat="47.84844" lon="3.512">
        <ele>147.3</ele>
        <time>2015-06-15T16:59:02.000Z</time>
      </trkpt>
      <trkpt lat="47.84848" lon="3.51178">
        <ele>147.3</ele>
        <time>2015-06-15T16:59:07.000Z</time>
      </trkpt>
      <trkpt lat="47.84859" lon="3.51162">
        <ele>147.8</ele>
        <time>2015-06-15T16:59:13.000Z</time>
      </trkpt>
      <trkpt lat="47.84872" lon="3.51139">
        <ele>148.8</ele>
        <time>2015-06-15T16:59:22.000Z</time>
      </trkpt>
      <trkpt lat="47.84878" lon="3.51105">
        <ele>148.8</ele>
        <time>2015-06-15T16:59:32.000Z</time>
      </trkpt>
      <trkpt lat="47.84881" lon="3.5106">
        <ele>148.5</ele>
        <time>2015-06-15T16:59:43.000Z</time>
      </trkpt>
      <trkpt lat="47.84878" lon="3.51022">
        <ele>147.9</ele>
        <time>2015-06-15T16:59:54.000Z</time>
      </trkpt>
      <trkpt lat="47.84878" lon="3.50978">
        <ele>147.4</ele>
        <time>2015-06-15T17:00:06.000Z</time>
      </trkpt>
      <trkpt lat="47.84877" lon="3.50934">
        <ele>147</ele>
        <time>2015-06-15T17:00:17.000Z</time>
      </trkpt>
      <trkpt lat="47.84889" lon="3.50897">
        <ele>148</ele>
        <time>2015-06-15T17:00:27.000Z</time>
      </trkpt>
      <trkpt lat="47.84902" lon="3.50869">
        <ele>148.9</ele>
        <time>2015-06-15T17:00:36.000Z</time>
      </trkpt>
      <trkpt lat="47.84899" lon="3.50827">
        <ele>148</ele>
        <time>2015-06-15T17:00:50.000Z</time>
      </trkpt>
      <trkpt lat="47.84899" lon="3.50782">
        <ele>147.7</ele>
        <time>2015-06-15T17:01:02.000Z</time>
      </trkpt>
      <trkpt lat="47.84896" lon="3.50737">
        <ele>147.5</ele>
        <time>2015-06-15T17:01:13.000Z</time>
      </trkpt>
      <trkpt lat="47.84898" lon="3.50681">
        <ele>147.3</ele>
        <time>2015-06-15T17:01:24.000Z</time>
      </trkpt>
      <trkpt lat="47.84903" lon="3.50639">
        <ele>147.5</ele>
        <time>2015-06-15T17:01:34.000Z</time>
      </trkpt>
      <trkpt lat="47.84907" lon="3.50632">
        <ele>148</ele>
        <time>2015-06-15T17:01:36.000Z</time>
      </trkpt>
      <trkpt lat="47.84914" lon="3.50599">
        <ele>148.8</ele>
        <time>2015-06-15T17:01:45.000Z</time>
      </trkpt>
      <trkpt lat="47.84915" lon="3.50598">
        <ele>148.9</ele>
        <time>2015-06-15T17:01:46.000Z</time>
      </trkpt>
      <trkpt lat="47.84917" lon="3.50596">
        <ele>149</ele>
        <time>2015-06-15T17:01:47.000Z</time>
      </trkpt>
      <trkpt lat="47.84918" lon="3.50596">
        <ele>149.1</ele>
        <time>2015-06-15T17:01:48.000Z</time>
      </trkpt>
      <trkpt lat="47.84919" lon="3.50597">
        <ele>149.2</ele>
        <time>2015-06-15T17:01:49.000Z</time>
      </trkpt>
      <trkpt lat="47.8492" lon="3.50597">
        <ele>149.2</ele>
        <time>2015-06-15T17:01:50.000Z</time>
      </trkpt>
      <trkpt lat="47.84946" lon="3.50602">
        <ele>151.1</ele>
        <time>2015-06-15T17:02:01.000Z</time>
      </trkpt>
      <trkpt lat="47.84967" lon="3.50601">
        <ele>153.4</ele>
        <time>2015-06-15T17:02:17.000Z</time>
      </trkpt>
      <trkpt lat="47.84991" lon="3.50604">
        <ele>154.7</ele>
        <time>2015-06-15T17:02:30.000Z</time>
      </trkpt>
      <trkpt lat="47.84992" lon="3.50603">
        <ele>154.7</ele>
        <time>2015-06-15T17:02:31.000Z</time>
      </trkpt>
      <trkpt lat="47.84993" lon="3.50602">
        <ele>154.7</ele>
        <time>2015-06-15T17:02:32.000Z</time>
      </trkpt>
      <trkpt lat="47.85" lon="3.506">
        <ele>155</ele>
        <time>2015-06-15T17:02:37.000Z</time>
      </trkpt>
      <trkpt lat="47.85002" lon="3.506">
        <ele>155.1</ele>
        <time>2015-06-15T17:02:38.000Z</time>
      </trkpt>
      <trkpt lat="47.85023" lon="3.50617">
        <ele>156.7</ele>
        <time>2015-06-15T17:02:52.000Z</time>
      </trkpt>
      <trkpt lat="47.85046" lon="3.50635">
        <ele>157.1</ele>
        <time>2015-06-15T17:03:04.000Z</time>
      </trkpt>
      <trkpt lat="47.85056" lon="3.50643">
        <ele>157</ele>
        <time>2015-06-15T17:03:10.000Z</time>
      </trkpt>
      <trkpt lat="47.85057" lon="3.50644">
        <ele>157</ele>
        <time>2015-06-15T17:03:11.000Z</time>
      </trkpt>
      <trkpt lat="47.85072" lon="3.50668">
        <ele>157</ele>
        <time>2015-06-15T17:03:22.000Z</time>
      </trkpt>
      <trkpt lat="47.85078" lon="3.50702">
        <ele>157</ele>
        <time>2015-06-15T17:03:31.000Z</time>
      </trkpt>
      <trkpt lat="47.85077" lon="3.5074">
        <ele>156.5</ele>
        <time>2015-06-15T17:03:40.000Z</time>
      </trkpt>
      <trkpt lat="47.85077" lon="3.50775">
        <ele>156.2</ele>
        <time>2015-06-15T17:03:50.000Z</time>
      </trkpt>
      <trkpt lat="47.85082" lon="3.50809">
        <ele>156</ele>
        <time>2015-06-15T17:03:59.000Z</time>
      </trkpt>
      <trkpt lat="47.85079" lon="3.50842">
        <ele>155.7</ele>
        <time>2015-06-15T17:04:08.000Z</time>
      </trkpt>
      <trkpt lat="47.85084" lon="3.50874">
        <ele>155</ele>
        <time>2015-06-15T17:04:17.000Z</time>
      </trkpt>
      <trkpt lat="47.85083" lon="3.50911">
        <ele>155</ele>
        <time>2015-06-15T17:04:27.000Z</time>
      </trkpt>
      <trkpt lat="47.8508" lon="3.50949">
        <ele>155</ele>
        <time>2015-06-15T17:04:36.000Z</time>
      </trkpt>
      <trkpt lat="47.85077" lon="3.50988">
        <ele>155.1</ele>
        <time>2015-06-15T17:04:47.000Z</time>
      </trkpt>
      <trkpt lat="47.85074" lon="3.51029">
        <ele>155.4</ele>
        <time>2015-06-15T17:04:59.000Z</time>
      </trkpt>
      <trkpt lat="47.85068" lon="3.51066">
        <ele>156.1</ele>
        <time>2015-06-15T17:05:07.000Z</time>
      </trkpt>
      <trkpt lat="47.85063" lon="3.51084">
        <ele>156.4</ele>
        <time>2015-06-15T17:05:13.000Z</time>
      </trkpt>
      <trkpt lat="47.85059" lon="3.51104">
        <ele>156.8</ele>
        <time>2015-06-15T17:05:18.000Z</time>
      </trkpt>
      <trkpt lat="47.85063" lon="3.51138">
        <ele>156.4</ele>
        <time>2015-06-15T17:05:28.000Z</time>
      </trkpt>
      <trkpt lat="47.85073" lon="3.51146">
        <ele>155.7</ele>
        <time>2015-06-15T17:05:41.000Z</time>
      </trkpt>
      <trkpt lat="47.85086" lon="3.51164">
        <ele>154.9</ele>
        <time>2015-06-15T17:05:53.000Z</time>
      </trkpt>
      <trkpt lat="47.85095" lon="3.51197">
        <ele>155.1</ele>
        <time>2015-06-15T17:06:02.000Z</time>
      </trkpt>
      <trkpt lat="47.85109" lon="3.51227">
        <ele>154.2</ele>
        <time>2015-06-15T17:06:11.000Z</time>
      </trkpt>
      <trkpt lat="47.85129" lon="3.51261">
        <ele>152.9</ele>
        <time>2015-06-15T17:06:21.000Z</time>
      </trkpt>
      <trkpt lat="47.8515" lon="3.51288">
        <ele>151.6</ele>
        <time>2015-06-15T17:06:30.000Z</time>
      </trkpt>
      <trkpt lat="47.8517" lon="3.51316">
        <ele>150.8</ele>
        <time>2015-06-15T17:06:38.000Z</time>
      </trkpt>
      <trkpt lat="47.85188" lon="3.51344">
        <ele>150.3</ele>
        <time>2015-06-15T17:06:47.000Z</time>
      </trkpt>
      <trkpt lat="47.85201" lon="3.51387">
        <ele>149.7</ele>
        <time>2015-06-15T17:06:58.000Z</time>
      </trkpt>
      <trkpt lat="47.85209" lon="3.51417">
        <ele>150</ele>
        <time>2015-06-15T17:07:10.000Z</time>
      </trkpt>
      <trkpt lat="47.85216" lon="3.51452">
        <ele>150.3</ele>
        <time>2015-06-15T17:07:20.000Z</time>
      </trkpt>
      <trkpt lat="47.85257" lon="3.51457">
        <ele>147.5</ele>
        <time>2015-06-15T17:07:29.000Z</time>
      </trkpt>
      <trkpt lat="47.85278" lon="3.51491">
        <ele>146.7</ele>
        <time>2015-06-15T17:07:38.000Z</time>
      </trkpt>
      <trkpt lat="47.85292" lon="3.51523">
        <ele>146.4</ele>
        <time>2015-06-15T17:07:49.000Z</time>
      </trkpt>
      <trkpt lat="47.8531" lon="3.51556">
        <ele>146.7</ele>
        <time>2015-06-15T17:07:58.000Z</time>
      </trkpt>
      <trkpt lat="47.8532" lon="3.51593">
        <ele>147</ele>
        <time>2015-06-15T17:08:08.000Z</time>
      </trkpt>
      <trkpt lat="47.85334" lon="3.51628">
        <ele>147.6</ele>
        <time>2015-06-15T17:08:18.000Z</time>
      </trkpt>
      <trkpt lat="47.85349" lon="3.51664">
        <ele>147.7</ele>
        <time>2015-06-15T17:08:28.000Z</time>
      </trkpt>
      <trkpt lat="47.85366" lon="3.51688">
        <ele>146.7</ele>
        <time>2015-06-15T17:08:38.000Z</time>
      </trkpt>
      <trkpt lat="47.85376" lon="3.51721">
        <ele>145.9</ele>
        <time>2015-06-15T17:08:46.000Z</time>
      </trkpt>
      <trkpt lat="47.85383" lon="3.51748">
        <ele>145.4</ele>
        <time>2015-06-15T17:08:54.000Z</time>
      </trkpt>
      <trkpt lat="47.85387" lon="3.51779">
        <ele>145.1</ele>
        <time>2015-06-15T17:09:04.000Z</time>
      </trkpt>
      <trkpt lat="47.85392" lon="3.51814">
        <ele>145.2</ele>
        <time>2015-06-15T17:09:14.000Z</time>
      </trkpt>
      <trkpt lat="47.85397" lon="3.51845">
        <ele>145.2</ele>
        <time>2015-06-15T17:09:22.000Z</time>
      </trkpt>
      <trkpt lat="47.85404" lon="3.51887">
        <ele>144.4</ele>
        <time>2015-06-15T17:09:31.000Z</time>
      </trkpt>
      <trkpt lat="47.85404" lon="3.51928">
        <ele>144.4</ele>
        <time>2015-06-15T17:09:40.000Z</time>
      </trkpt>
      <trkpt lat="47.85406" lon="3.51959">
        <ele>143.9</ele>
        <time>2015-06-15T17:09:50.000Z</time>
      </trkpt>
      <trkpt lat="47.85402" lon="3.51988">
        <ele>143.5</ele>
        <time>2015-06-15T17:10:01.000Z</time>
      </trkpt>
      <trkpt lat="47.85392" lon="3.5202">
        <ele>143.1</ele>
        <time>2015-06-15T17:10:11.000Z</time>
      </trkpt>
      <trkpt lat="47.8539" lon="3.52049">
        <ele>142.2</ele>
        <time>2015-06-15T17:10:20.000Z</time>
      </trkpt>
      <trkpt lat="47.85385" lon="3.52072">
        <ele>141.8</ele>
        <time>2015-06-15T17:10:29.000Z</time>
      </trkpt>
      <trkpt lat="47.85385" lon="3.52074">
        <ele>141.7</ele>
        <time>2015-06-15T17:10:30.000Z</time>
      </trkpt>
      <trkpt lat="47.85385" lon="3.52076">
        <ele>141.6</ele>
        <time>2015-06-15T17:10:31.000Z</time>
      </trkpt>
      <trkpt lat="47.85384" lon="3.5208">
        <ele>141.6</ele>
        <time>2015-06-15T17:10:32.000Z</time>
      </trkpt>
      <trkpt lat="47.85384" lon="3.52082">
        <ele>141.6</ele>
        <time>2015-06-15T17:10:33.000Z</time>
      </trkpt>
      <trkpt lat="47.85385" lon="3.52085">
        <ele>141.4</ele>
        <time>2015-06-15T17:10:34.000Z</time>
      </trkpt>
      <trkpt lat="47.85385" lon="3.52091">
        <ele>141.2</ele>
        <time>2015-06-15T17:10:36.000Z</time>
      </trkpt>
      <trkpt lat="47.85385" lon="3.52094">
        <ele>141</ele>
        <time>2015-06-15T17:10:37.000Z</time>
      </trkpt>
      <trkpt lat="47.85353" lon="3.52146">
        <ele>142.8</ele>
        <time>2015-06-15T17:10:48.000Z</time>
      </trkpt>
      <trkpt lat="47.85343" lon="3.52152">
        <ele>143.9</ele>
        <time>2015-06-15T17:10:52.000Z</time>
      </trkpt>
      <trkpt lat="47.85333" lon="3.52151">
        <ele>145.1</ele>
        <time>2015-06-15T17:10:57.000Z</time>
      </trkpt>
      <trkpt lat="47.8531" lon="3.5217">
        <ele>146.4</ele>
        <time>2015-06-15T17:11:08.000Z</time>
      </trkpt>
      <trkpt lat="47.8529" lon="3.52192">
        <ele>146.7</ele>
        <time>2015-06-15T17:11:17.000Z</time>
      </trkpt>
      <trkpt lat="47.85268" lon="3.52218">
        <ele>147.3</ele>
        <time>2015-06-15T17:11:27.000Z</time>
      </trkpt>
      <trkpt lat="47.85251" lon="3.52241">
        <ele>148.2</ele>
        <time>2015-06-15T17:11:36.000Z</time>
      </trkpt>
      <trkpt lat="47.85231" lon="3.52266">
        <ele>148.8</ele>
        <time>2015-06-15T17:11:46.000Z</time>
      </trkpt>
      <trkpt lat="47.85212" lon="3.52289">
        <ele>148.7</ele>
        <time>2015-06-15T17:11:55.000Z</time>
      </trkpt>
      <trkpt lat="47.85195" lon="3.52313">
        <ele>148.7</ele>
        <time>2015-06-15T17:12:04.000Z</time>
      </trkpt>
      <trkpt lat="47.85176" lon="3.52336">
        <ele>149.2</ele>
        <time>2015-06-15T17:12:14.000Z</time>
      </trkpt>
      <trkpt lat="47.8516" lon="3.52353">
        <ele>148.8</ele>
        <time>2015-06-15T17:12:23.000Z</time>
      </trkpt>
      <trkpt lat="47.85148" lon="3.52365">
        <ele>148.5</ele>
        <time>2015-06-15T17:12:30.000Z</time>
      </trkpt>
      <trkpt lat="47.85146" lon="3.52366">
        <ele>148.5</ele>
        <time>2015-06-15T17:12:31.000Z</time>
      </trkpt>
      <trkpt lat="47.85137" lon="3.52375">
        <ele>148.6</ele>
        <time>2015-06-15T17:12:36.000Z</time>
      </trkpt>
      <trkpt lat="47.85134" lon="3.52377">
        <ele>148.6</ele>
        <time>2015-06-15T17:12:37.000Z</time>
      </trkpt>
      <trkpt lat="47.85128" lon="3.52382">
        <ele>148.6</ele>
        <time>2015-06-15T17:12:40.000Z</time>
      </trkpt>
      <trkpt lat="47.85127" lon="3.52384">
        <ele>148.6</ele>
        <time>2015-06-15T17:12:41.000Z</time>
      </trkpt>
      <trkpt lat="47.85126" lon="3.52385">
        <ele>148.6</ele>
        <time>2015-06-15T17:12:42.000Z</time>
      </trkpt>
      <trkpt lat="47.85124" lon="3.52387">
        <ele>148.6</ele>
        <time>2015-06-15T17:12:43.000Z</time>
      </trkpt>
      <trkpt lat="47.85122" lon="3.52388">
        <ele>148.6</ele>
        <time>2015-06-15T17:12:44.000Z</time>
      </trkpt>
      <trkpt lat="47.85119" lon="3.5239">
        <ele>148.6</ele>
        <time>2015-06-15T17:12:45.000Z</time>
      </trkpt>
      <trkpt lat="47.85116" lon="3.52391">
        <ele>148.5</ele>
        <time>2015-06-15T17:12:46.000Z</time>
      </trkpt>
      <trkpt lat="47.85093" lon="3.52403">
        <ele>148.5</ele>
        <time>2015-06-15T17:12:56.000Z</time>
      </trkpt>
      <trkpt lat="47.85069" lon="3.52411">
        <ele>149.3</ele>
        <time>2015-06-15T17:13:07.000Z</time>
      </trkpt>
      <trkpt lat="47.85048" lon="3.52418">
        <ele>149.9</ele>
        <time>2015-06-15T17:13:17.000Z</time>
      </trkpt>
      <trkpt lat="47.85023" lon="3.52422">
        <ele>149.8</ele>
        <time>2015-06-15T17:13:26.000Z</time>
      </trkpt>
      <trkpt lat="47.84996" lon="3.52414">
        <ele>151.2</ele>
        <time>2015-06-15T17:13:35.000Z</time>
      </trkpt>
      <trkpt lat="47.84971" lon="3.52407">
        <ele>152</ele>
        <time>2015-06-15T17:13:43.000Z</time>
      </trkpt>
      <trkpt lat="47.8495" lon="3.52407">
        <ele>152</ele>
        <time>2015-06-15T17:13:52.000Z</time>
      </trkpt>
      <trkpt lat="47.84923" lon="3.52402">
        <ele>152</ele>
        <time>2015-06-15T17:14:03.000Z</time>
      </trkpt>
      <trkpt lat="47.849" lon="3.52408">
        <ele>152.2</ele>
        <time>2015-06-15T17:14:14.000Z</time>
      </trkpt>
      <trkpt lat="47.84879" lon="3.52414">
        <ele>152.1</ele>
        <time>2015-06-15T17:14:24.000Z</time>
      </trkpt>
      <trkpt lat="47.84853" lon="3.52416">
        <ele>152</ele>
        <time>2015-06-15T17:14:36.000Z</time>
      </trkpt>
      <trkpt lat="47.84817" lon="3.52407">
        <ele>152.4</ele>
        <time>2015-06-15T17:14:46.000Z</time>
      </trkpt>
      <trkpt lat="47.84789" lon="3.5241">
        <ele>151.6</ele>
        <time>2015-06-15T17:14:55.000Z</time>
      </trkpt>
      <trkpt lat="47.84762" lon="3.52405">
        <ele>150.9</ele>
        <time>2015-06-15T17:15:04.000Z</time>
      </trkpt>
      <trkpt lat="47.84758" lon="3.52406">
        <ele>150.7</ele>
        <time>2015-06-15T17:15:05.000Z</time>
      </trkpt>
      <trkpt lat="47.84757" lon="3.52406">
        <ele>150.6</ele>
        <time>2015-06-15T17:15:06.000Z</time>
      </trkpt>
      <trkpt lat="47.84756" lon="3.52407">
        <ele>150.6</ele>
        <time>2015-06-15T17:15:07.000Z</time>
      </trkpt>
      <trkpt lat="47.84755" lon="3.52407">
        <ele>150.5</ele>
        <time>2015-06-15T17:15:08.000Z</time>
      </trkpt>
      <trkpt lat="47.84753" lon="3.52408">
        <ele>150.4</ele>
        <time>2015-06-15T17:15:09.000Z</time>
      </trkpt>
      <trkpt lat="47.84752" lon="3.52409">
        <ele>150.3</ele>
        <time>2015-06-15T17:15:10.000Z</time>
      </trkpt>
      <trkpt lat="47.84749" lon="3.5241">
        <ele>150.2</ele>
        <time>2015-06-15T17:15:11.000Z</time>
      </trkpt>
      <trkpt lat="47.84748" lon="3.52411">
        <ele>150</ele>
        <time>2015-06-15T17:15:12.000Z</time>
      </trkpt>
      <trkpt lat="47.84727" lon="3.52424">
        <ele>148.1</ele>
        <time>2015-06-15T17:15:23.000Z</time>
      </trkpt>
      <trkpt lat="47.8472" lon="3.52429">
        <ele>147.4</ele>
        <time>2015-06-15T17:15:28.000Z</time>
      </trkpt>
      <trkpt lat="47.84713" lon="3.52431">
        <ele>146.8</ele>
        <time>2015-06-15T17:15:30.000Z</time>
      </trkpt>
      <trkpt lat="47.84707" lon="3.52432">
        <ele>146.3</ele>
        <time>2015-06-15T17:15:31.000Z</time>
      </trkpt>
      <trkpt lat="47.84688" lon="3.52456">
        <ele>144.1</ele>
        <time>2015-06-15T17:15:41.000Z</time>
      </trkpt>
      <trkpt lat="47.84691" lon="3.52483">
        <ele>143.8</ele>
        <time>2015-06-15T17:15:51.000Z</time>
      </trkpt>
      <trkpt lat="47.84699" lon="3.52515">
        <ele>144.3</ele>
        <time>2015-06-15T17:16:01.000Z</time>
      </trkpt>
      <trkpt lat="47.84711" lon="3.52541">
        <ele>144.9</ele>
        <time>2015-06-15T17:16:12.000Z</time>
      </trkpt>
      <trkpt lat="47.84727" lon="3.52565">
        <ele>145.3</ele>
        <time>2015-06-15T17:16:23.000Z</time>
      </trkpt>
      <trkpt lat="47.84742" lon="3.52591">
        <ele>146.2</ele>
        <time>2015-06-15T17:16:33.000Z</time>
      </trkpt>
      <trkpt lat="47.84749" lon="3.52624">
        <ele>146</ele>
        <time>2015-06-15T17:16:43.000Z</time>
      </trkpt>
      <trkpt lat="47.84744" lon="3.52636">
        <ele>145.8</ele>
        <time>2015-06-15T17:16:48.000Z</time>
      </trkpt>
      <trkpt lat="47.84744" lon="3.52638">
        <ele>145.8</ele>
        <time>2015-06-15T17:16:49.000Z</time>
      </trkpt>
      <trkpt lat="47.84743" lon="3.52639">
        <ele>145.8</ele>
        <time>2015-06-15T17:16:50.000Z</time>
      </trkpt>
      <trkpt lat="47.84743" lon="3.52641">
        <ele>145.8</ele>
        <time>2015-06-15T17:16:51.000Z</time>
      </trkpt>
      <trkpt lat="47.84741" lon="3.52641">
        <ele>145.8</ele>
        <time>2015-06-15T17:16:52.000Z</time>
      </trkpt>
      <trkpt lat="47.84737" lon="3.52646">
        <ele>145.8</ele>
        <time>2015-06-15T17:16:56.000Z</time>
      </trkpt>
      <trkpt lat="47.84734" lon="3.52649">
        <ele>145.8</ele>
        <time>2015-06-15T17:16:59.000Z</time>
      </trkpt>
      <trkpt lat="47.8473" lon="3.52649">
        <ele>145.6</ele>
        <time>2015-06-15T17:17:00.000Z</time>
      </trkpt>
      <trkpt lat="47.8471" lon="3.52657">
        <ele>145.2</ele>
        <time>2015-06-15T17:17:11.000Z</time>
      </trkpt>
      <trkpt lat="47.84682" lon="3.52685">
        <ele>144.1</ele>
        <time>2015-06-15T17:17:23.000Z</time>
      </trkpt>
      <trkpt lat="47.84672" lon="3.52717">
        <ele>144</ele>
        <time>2015-06-15T17:17:35.000Z</time>
      </trkpt>
      <trkpt lat="47.84667" lon="3.52755">
        <ele>145</ele>
        <time>2015-06-15T17:17:47.000Z</time>
      </trkpt>
      <trkpt lat="47.84662" lon="3.52795">
        <ele>144.8</ele>
        <time>2015-06-15T17:17:57.000Z</time>
      </trkpt>
      <trkpt lat="47.84651" lon="3.52825">
        <ele>144.8</ele>
        <time>2015-06-15T17:18:06.000Z</time>
      </trkpt>
      <trkpt lat="47.84646" lon="3.52831">
        <ele>144.9</ele>
        <time>2015-06-15T17:18:09.000Z</time>
      </trkpt>
      <trkpt lat="47.84644" lon="3.52833">
        <ele>145</ele>
        <time>2015-06-15T17:18:10.000Z</time>
      </trkpt>
      <trkpt lat="47.84642" lon="3.52833">
        <ele>145</ele>
        <time>2015-06-15T17:18:11.000Z</time>
      </trkpt>
      <trkpt lat="47.84641" lon="3.52835">
        <ele>145</ele>
        <time>2015-06-15T17:18:12.000Z</time>
      </trkpt>
      <trkpt lat="47.84639" lon="3.52837">
        <ele>145</ele>
        <time>2015-06-15T17:18:13.000Z</time>
      </trkpt>
      <trkpt lat="47.84638" lon="3.5284">
        <ele>145</ele>
        <time>2015-06-15T17:18:14.000Z</time>
      </trkpt>
      <trkpt lat="47.84636" lon="3.52842">
        <ele>144.9</ele>
        <time>2015-06-15T17:18:15.000Z</time>
      </trkpt>
      <trkpt lat="47.84635" lon="3.52844">
        <ele>144.9</ele>
        <time>2015-06-15T17:18:16.000Z</time>
      </trkpt>
      <trkpt lat="47.84634" lon="3.52846">
        <ele>144.8</ele>
        <time>2015-06-15T17:18:17.000Z</time>
      </trkpt>
      <trkpt lat="47.84633" lon="3.52848">
        <ele>144.8</ele>
        <time>2015-06-15T17:18:18.000Z</time>
      </trkpt>
      <trkpt lat="47.84632" lon="3.52851">
        <ele>144.7</ele>
        <time>2015-06-15T17:18:19.000Z</time>
      </trkpt>
      <trkpt lat="47.84631" lon="3.52852">
        <ele>144.7</ele>
        <time>2015-06-15T17:18:20.000Z</time>
      </trkpt>
      <trkpt lat="47.84617" lon="3.52885">
        <ele>144.2</ele>
        <time>2015-06-15T17:18:31.000Z</time>
      </trkpt>
      <trkpt lat="47.84617" lon="3.5289">
        <ele>144.2</ele>
        <time>2015-06-15T17:18:32.000Z</time>
      </trkpt>
      <trkpt lat="47.8462" lon="3.52929">
        <ele>145</ele>
        <time>2015-06-15T17:18:42.000Z</time>
      </trkpt>
      <trkpt lat="47.84621" lon="3.52955">
        <ele>145</ele>
        <time>2015-06-15T17:18:52.000Z</time>
      </trkpt>
      <trkpt lat="47.8462" lon="3.52958">
        <ele>145</ele>
        <time>2015-06-15T17:18:53.000Z</time>
      </trkpt>
      <trkpt lat="47.84618" lon="3.52961">
        <ele>145</ele>
        <time>2015-06-15T17:18:54.000Z</time>
      </trkpt>
      <trkpt lat="47.84617" lon="3.52963">
        <ele>145</ele>
        <time>2015-06-15T17:18:55.000Z</time>
      </trkpt>
      <trkpt lat="47.84615" lon="3.52965">
        <ele>145</ele>
        <time>2015-06-15T17:18:56.000Z</time>
      </trkpt>
      <trkpt lat="47.84615" lon="3.52967">
        <ele>145</ele>
        <time>2015-06-15T17:18:57.000Z</time>
      </trkpt>
      <trkpt lat="47.84614" lon="3.52969">
        <ele>145</ele>
        <time>2015-06-15T17:18:58.000Z</time>
      </trkpt>
      <trkpt lat="47.84614" lon="3.52974">
        <ele>144.9</ele>
        <time>2015-06-15T17:18:59.000Z</time>
      </trkpt>
      <trkpt lat="47.84614" lon="3.52979">
        <ele>144.8</ele>
        <time>2015-06-15T17:19:00.000Z</time>
      </trkpt>
      <trkpt lat="47.84615" lon="3.52984">
        <ele>144.6</ele>
        <time>2015-06-15T17:19:01.000Z</time>
      </trkpt>
      <trkpt lat="47.84614" lon="3.52989">
        <ele>144.5</ele>
        <time>2015-06-15T17:19:02.000Z</time>
      </trkpt>
      <trkpt lat="47.84613" lon="3.52991">
        <ele>144.4</ele>
        <time>2015-06-15T17:19:03.000Z</time>
      </trkpt>
      <trkpt lat="47.84612" lon="3.52994">
        <ele>144.3</ele>
        <time>2015-06-15T17:19:04.000Z</time>
      </trkpt>
      <trkpt lat="47.84612" lon="3.52996">
        <ele>144.2</ele>
        <time>2015-06-15T17:19:05.000Z</time>
      </trkpt>
      <trkpt lat="47.84611" lon="3.52998">
        <ele>144.1</ele>
        <time>2015-06-15T17:19:06.000Z</time>
      </trkpt>
      <trkpt lat="47.8461" lon="3.52999">
        <ele>144</ele>
        <time>2015-06-15T17:19:07.000Z</time>
      </trkpt>
      <trkpt lat="47.84609" lon="3.53002">
        <ele>144</ele>
        <time>2015-06-15T17:19:08.000Z</time>
      </trkpt>
      <trkpt lat="47.84608" lon="3.53003">
        <ele>144</ele>
        <time>2015-06-15T17:19:09.000Z</time>
      </trkpt>
      <trkpt lat="47.84606" lon="3.53005">
        <ele>144</ele>
        <time>2015-06-15T17:19:10.000Z</time>
      </trkpt>
      <trkpt lat="47.84605" lon="3.53007">
        <ele>144</ele>
        <time>2015-06-15T17:19:11.000Z</time>
      </trkpt>
      <trkpt lat="47.84604" lon="3.53038">
        <ele>144</ele>
        <time>2015-06-15T17:19:19.000Z</time>
      </trkpt>
      <trkpt lat="47.84604" lon="3.53039">
        <ele>144</ele>
        <time>2015-06-15T17:19:20.000Z</time>
      </trkpt>
      <trkpt lat="47.84601" lon="3.53083">
        <ele>144</ele>
        <time>2015-06-15T17:19:32.000Z</time>
      </trkpt>
      <trkpt lat="47.84599" lon="3.53116">
        <ele>144</ele>
        <time>2015-06-15T17:19:42.000Z</time>
      </trkpt>
      <trkpt lat="47.84595" lon="3.53164">
        <ele>143.1</ele>
        <time>2015-06-15T17:19:53.000Z</time>
      </trkpt>
      <trkpt lat="47.84592" lon="3.53203">
        <ele>143</ele>
        <time>2015-06-15T17:20:06.000Z</time>
      </trkpt>
      <trkpt lat="47.8459" lon="3.53251">
        <ele>143</ele>
        <time>2015-06-15T17:20:17.000Z</time>
      </trkpt>
      <trkpt lat="47.84588" lon="3.53286">
        <ele>142.6</ele>
        <time>2015-06-15T17:20:27.000Z</time>
      </trkpt>
      <trkpt lat="47.84589" lon="3.53325">
        <ele>142</ele>
        <time>2015-06-15T17:20:39.000Z</time>
      </trkpt>
      <trkpt lat="47.84587" lon="3.5337">
        <ele>141.7</ele>
        <time>2015-06-15T17:20:48.000Z</time>
      </trkpt>
      <trkpt lat="47.84584" lon="3.53381">
        <ele>141.3</ele>
        <time>2015-06-15T17:20:52.000Z</time>
      </trkpt>
      <trkpt lat="47.84582" lon="3.53394">
        <ele>141</ele>
        <time>2015-06-15T17:20:57.000Z</time>
      </trkpt>
      <trkpt lat="47.84581" lon="3.53397">
        <ele>141</ele>
        <time>2015-06-15T17:20:58.000Z</time>
      </trkpt>
      <trkpt lat="47.84581" lon="3.53401">
        <ele>141</ele>
        <time>2015-06-15T17:20:59.000Z</time>
      </trkpt>
      <trkpt lat="47.84568" lon="3.53436">
        <ele>141</ele>
        <time>2015-06-15T17:21:10.000Z</time>
      </trkpt>
      <trkpt lat="47.8456" lon="3.5347">
        <ele>140.1</ele>
        <time>2015-06-15T17:21:21.000Z</time>
      </trkpt>
      <trkpt lat="47.8455" lon="3.53507">
        <ele>139.8</ele>
        <time>2015-06-15T17:21:32.000Z</time>
      </trkpt>
      <trkpt lat="47.84549" lon="3.53535">
        <ele>139.2</ele>
        <time>2015-06-15T17:21:45.000Z</time>
      </trkpt>
      <trkpt lat="47.84537" lon="3.53567">
        <ele>139</ele>
        <time>2015-06-15T17:21:56.000Z</time>
      </trkpt>
      <trkpt lat="47.84524" lon="3.53598">
        <ele>139.1</ele>
        <time>2015-06-15T17:22:06.000Z</time>
      </trkpt>
      <trkpt lat="47.84524" lon="3.53601">
        <ele>139</ele>
        <time>2015-06-15T17:22:07.000Z</time>
      </trkpt>
      <trkpt lat="47.84523" lon="3.53604">
        <ele>139</ele>
        <time>2015-06-15T17:22:08.000Z</time>
      </trkpt>
      <trkpt lat="47.8452" lon="3.53607">
        <ele>139</ele>
        <time>2015-06-15T17:22:09.000Z</time>
      </trkpt>
      <trkpt lat="47.84519" lon="3.5361">
        <ele>139</ele>
        <time>2015-06-15T17:22:10.000Z</time>
      </trkpt>
      <trkpt lat="47.84518" lon="3.53614">
        <ele>138.9</ele>
        <time>2015-06-15T17:22:11.000Z</time>
      </trkpt>
      <trkpt lat="47.84516" lon="3.53618">
        <ele>138.9</ele>
        <time>2015-06-15T17:22:12.000Z</time>
      </trkpt>
      <trkpt lat="47.84515" lon="3.53622">
        <ele>138.8</ele>
        <time>2015-06-15T17:22:13.000Z</time>
      </trkpt>
      <trkpt lat="47.84513" lon="3.53626">
        <ele>138.7</ele>
        <time>2015-06-15T17:22:14.000Z</time>
      </trkpt>
      <trkpt lat="47.84512" lon="3.53631">
        <ele>138.7</ele>
        <time>2015-06-15T17:22:15.000Z</time>
      </trkpt>
      <trkpt lat="47.84506" lon="3.53638">
        <ele>138.8</ele>
        <time>2015-06-15T17:22:18.000Z</time>
      </trkpt>
      <trkpt lat="47.84505" lon="3.53641">
        <ele>138.8</ele>
        <time>2015-06-15T17:22:19.000Z</time>
      </trkpt>
      <trkpt lat="47.84486" lon="3.53683">
        <ele>139</ele>
        <time>2015-06-15T17:22:29.000Z</time>
      </trkpt>
      <trkpt lat="47.84475" lon="3.53719">
        <ele>138.9</ele>
        <time>2015-06-15T17:22:37.000Z</time>
      </trkpt>
      <trkpt lat="47.84464" lon="3.53746">
        <ele>138.4</ele>
        <time>2015-06-15T17:22:46.000Z</time>
      </trkpt>
      <trkpt lat="47.84451" lon="3.53784">
        <ele>138.6</ele>
        <time>2015-06-15T17:22:56.000Z</time>
      </trkpt>
      <trkpt lat="47.84446" lon="3.53797">
        <ele>138.3</ele>
        <time>2015-06-15T17:23:00.000Z</time>
      </trkpt>
      <trkpt lat="47.84439" lon="3.5382">
        <ele>138.1</ele>
        <time>2015-06-15T17:23:06.000Z</time>
      </trkpt>
      <trkpt lat="47.84434" lon="3.53842">
        <ele>138</ele>
        <time>2015-06-15T17:23:12.000Z</time>
      </trkpt>
      <trkpt lat="47.84433" lon="3.53845">
        <ele>138</ele>
        <time>2015-06-15T17:23:13.000Z</time>
      </trkpt>
      <trkpt lat="47.84433" lon="3.53849">
        <ele>138</ele>
        <time>2015-06-15T17:23:14.000Z</time>
      </trkpt>
      <trkpt lat="47.84431" lon="3.53851">
        <ele>138</ele>
        <time>2015-06-15T17:23:15.000Z</time>
      </trkpt>
      <trkpt lat="47.8443" lon="3.53854">
        <ele>138</ele>
        <time>2015-06-15T17:23:16.000Z</time>
      </trkpt>
      <trkpt lat="47.8443" lon="3.53858">
        <ele>138</ele>
        <time>2015-06-15T17:23:17.000Z</time>
      </trkpt>
      <trkpt lat="47.84419" lon="3.53887">
        <ele>138</ele>
        <time>2015-06-15T17:23:27.000Z</time>
      </trkpt>
      <trkpt lat="47.84406" lon="3.53924">
        <ele>138</ele>
        <time>2015-06-15T17:23:37.000Z</time>
      </trkpt>
      <trkpt lat="47.84393" lon="3.5396">
        <ele>137.9</ele>
        <time>2015-06-15T17:23:46.000Z</time>
      </trkpt>
      <trkpt lat="47.84379" lon="3.53988">
        <ele>137.6</ele>
        <time>2015-06-15T17:23:54.000Z</time>
      </trkpt>
      <trkpt lat="47.84371" lon="3.54017">
        <ele>137.3</ele>
        <time>2015-06-15T17:24:03.000Z</time>
      </trkpt>
      <trkpt lat="47.84363" lon="3.54047">
        <ele>137</ele>
        <time>2015-06-15T17:24:11.000Z</time>
      </trkpt>
      <trkpt lat="47.84354" lon="3.54075">
        <ele>137.1</ele>
        <time>2015-06-15T17:24:18.000Z</time>
      </trkpt>
      <trkpt lat="47.84345" lon="3.54101">
        <ele>137</ele>
        <time>2015-06-15T17:24:25.000Z</time>
      </trkpt>
      <trkpt lat="47.84336" lon="3.54127">
        <ele>137</ele>
        <time>2015-06-15T17:24:33.000Z</time>
      </trkpt>
      <trkpt lat="47.84324" lon="3.54153">
        <ele>137</ele>
        <time>2015-06-15T17:24:41.000Z</time>
      </trkpt>
      <trkpt lat="47.84315" lon="3.54179">
        <ele>137</ele>
        <time>2015-06-15T17:24:49.000Z</time>
      </trkpt>
      <trkpt lat="47.84305" lon="3.54206">
        <ele>137</ele>
        <time>2015-06-15T17:24:58.000Z</time>
      </trkpt>
      <trkpt lat="47.84296" lon="3.54233">
        <ele>136.9</ele>
        <time>2015-06-15T17:25:06.000Z</time>
      </trkpt>
      <trkpt lat="47.84287" lon="3.54261">
        <ele>136.2</ele>
        <time>2015-06-15T17:25:14.000Z</time>
      </trkpt>
      <trkpt lat="47.84277" lon="3.54289">
        <ele>136</ele>
        <time>2015-06-15T17:25:22.000Z</time>
      </trkpt>
      <trkpt lat="47.84265" lon="3.54316">
        <ele>135.6</ele>
        <time>2015-06-15T17:25:30.000Z</time>
      </trkpt>
      <trkpt lat="47.84255" lon="3.54342">
        <ele>135.2</ele>
        <time>2015-06-15T17:25:38.000Z</time>
      </trkpt>
      <trkpt lat="47.84246" lon="3.54365">
        <ele>134.5</ele>
        <time>2015-06-15T17:25:46.000Z</time>
      </trkpt>
      <trkpt lat="47.84238" lon="3.54391">
        <ele>133</ele>
        <time>2015-06-15T17:25:56.000Z</time>
      </trkpt>
      <trkpt lat="47.84229" lon="3.5442">
        <ele>130.4</ele>
        <time>2015-06-15T17:26:05.000Z</time>
      </trkpt>
      <trkpt lat="47.84224" lon="3.5444">
        <ele>127.7</ele>
        <time>2015-06-15T17:26:14.000Z</time>
      </trkpt>
      <trkpt lat="47.84223" lon="3.54449">
        <ele>127</ele>
        <time>2015-06-15T17:26:18.000Z</time>
      </trkpt>
      <trkpt lat="47.84223" lon="3.54451">
        <ele>126.9</ele>
        <time>2015-06-15T17:26:19.000Z</time>
      </trkpt>
      <trkpt lat="47.84222" lon="3.54453">
        <ele>126.7</ele>
        <time>2015-06-15T17:26:20.000Z</time>
      </trkpt>
      <trkpt lat="47.84214" lon="3.54478">
        <ele>124.7</ele>
        <time>2015-06-15T17:26:29.000Z</time>
      </trkpt>
      <trkpt lat="47.84208" lon="3.54495">
        <ele>122.4</ele>
        <time>2015-06-15T17:26:35.000Z</time>
      </trkpt>
      <trkpt lat="47.842" lon="3.54541">
        <ele>118.3</ele>
        <time>2015-06-15T17:26:46.000Z</time>
      </trkpt>
      <trkpt lat="47.84203" lon="3.54561">
        <ele>117.6</ele>
        <time>2015-06-15T17:27:00.000Z</time>
      </trkpt>
      <trkpt lat="47.84203" lon="3.54563">
        <ele>117.5</ele>
        <time>2015-06-15T17:27:01.000Z</time>
      </trkpt>
      <trkpt lat="47.84203" lon="3.54565">
        <ele>117.4</ele>
        <time>2015-06-15T17:27:02.000Z</time>
      </trkpt>
      <trkpt lat="47.84203" lon="3.54567">
        <ele>117.2</ele>
        <time>2015-06-15T17:27:03.000Z</time>
      </trkpt>
      <trkpt lat="47.84202" lon="3.5457">
        <ele>116.9</ele>
        <time>2015-06-15T17:27:04.000Z</time>
      </trkpt>
      <trkpt lat="47.84199" lon="3.54575">
        <ele>116.2</ele>
        <time>2015-06-15T17:27:05.000Z</time>
      </trkpt>
      <trkpt lat="47.84195" lon="3.54577">
        <ele>115.6</ele>
        <time>2015-06-15T17:27:06.000Z</time>
      </trkpt>
      <trkpt lat="47.84193" lon="3.5458">
        <ele>115.1</ele>
        <time>2015-06-15T17:27:07.000Z</time>
      </trkpt>
      <trkpt lat="47.84187" lon="3.54581">
        <ele>114.4</ele>
        <time>2015-06-15T17:27:08.000Z</time>
      </trkpt>
      <trkpt lat="47.84185" lon="3.54583">
        <ele>114</ele>
        <time>2015-06-15T17:27:09.000Z</time>
      </trkpt>
      <trkpt lat="47.84182" lon="3.54585">
        <ele>113.5</ele>
        <time>2015-06-15T17:27:10.000Z</time>
      </trkpt>
      <trkpt lat="47.8418" lon="3.54588">
        <ele>113.1</ele>
        <time>2015-06-15T17:27:11.000Z</time>
      </trkpt>
      <trkpt lat="47.84177" lon="3.5459">
        <ele>112.8</ele>
        <time>2015-06-15T17:27:12.000Z</time>
      </trkpt>
      <trkpt lat="47.84175" lon="3.54593">
        <ele>112.4</ele>
        <time>2015-06-15T17:27:13.000Z</time>
      </trkpt>
      <trkpt lat="47.84166" lon="3.54603">
        <ele>111.2</ele>
        <time>2015-06-15T17:27:16.000Z</time>
      </trkpt>
      <trkpt lat="47.84146" lon="3.54625">
        <ele>108.2</ele>
        <time>2015-06-15T17:27:24.000Z</time>
      </trkpt>
      <trkpt lat="47.84127" lon="3.54646">
        <ele>105.3</ele>
        <time>2015-06-15T17:27:32.000Z</time>
      </trkpt>
      <trkpt lat="47.84109" lon="3.54667">
        <ele>102.9</ele>
        <time>2015-06-15T17:27:40.000Z</time>
      </trkpt>
      <trkpt lat="47.84093" lon="3.54687">
        <ele>101.6</ele>
        <time>2015-06-15T17:27:48.000Z</time>
      </trkpt>
      <trkpt lat="47.84074" lon="3.54706">
        <ele>100.9</ele>
        <time>2015-06-15T17:27:56.000Z</time>
      </trkpt>
      <trkpt lat="47.84055" lon="3.54727">
        <ele>100</ele>
        <time>2015-06-15T17:28:04.000Z</time>
      </trkpt>
      <trkpt lat="47.84038" lon="3.54743">
        <ele>100</ele>
        <time>2015-06-15T17:28:12.000Z</time>
      </trkpt>
      <trkpt lat="47.84022" lon="3.54755">
        <ele>99.5</ele>
        <time>2015-06-15T17:28:19.000Z</time>
      </trkpt>
      <trkpt lat="47.84021" lon="3.54757">
        <ele>99.2</ele>
        <time>2015-06-15T17:28:20.000Z</time>
      </trkpt>
      <trkpt lat="47.84021" lon="3.54759">
        <ele>99.2</ele>
        <time>2015-06-15T17:28:21.000Z</time>
      </trkpt>
      <trkpt lat="47.84021" lon="3.5476">
        <ele>99.2</ele>
        <time>2015-06-15T17:28:22.000Z</time>
      </trkpt>
      <trkpt lat="47.84023" lon="3.54764">
        <ele>99.2</ele>
        <time>2015-06-15T17:28:23.000Z</time>
      </trkpt>
      <trkpt lat="47.84025" lon="3.54765">
        <ele>99.2</ele>
        <time>2015-06-15T17:28:24.000Z</time>
      </trkpt>
      <trkpt lat="47.84027" lon="3.54766">
        <ele>99.3</ele>
        <time>2015-06-15T17:28:25.000Z</time>
      </trkpt>
      <trkpt lat="47.84028" lon="3.54768">
        <ele>99.3</ele>
        <time>2015-06-15T17:28:26.000Z</time>
      </trkpt>
      <trkpt lat="47.84044" lon="3.54784">
        <ele>99.3</ele>
        <time>2015-06-15T17:28:35.000Z</time>
      </trkpt>
      <trkpt lat="47.84061" lon="3.54802">
        <ele>99.1</ele>
        <time>2015-06-15T17:28:44.000Z</time>
      </trkpt>
      <trkpt lat="47.84078" lon="3.54823">
        <ele>98.7</ele>
        <time>2015-06-15T17:28:53.000Z</time>
      </trkpt>
      <trkpt lat="47.84085" lon="3.54843">
        <ele>99</ele>
        <time>2015-06-15T17:28:59.000Z</time>
      </trkpt>
      <trkpt lat="47.84087" lon="3.54854">
        <ele>99</ele>
        <time>2015-06-15T17:29:02.000Z</time>
      </trkpt>
      <trkpt lat="47.84093" lon="3.54884">
        <ele>98.5</ele>
        <time>2015-06-15T17:29:10.000Z</time>
      </trkpt>
      <trkpt lat="47.841" lon="3.54913">
        <ele>97.2</ele>
        <time>2015-06-15T17:29:20.000Z</time>
      </trkpt>
      <trkpt lat="47.84112" lon="3.54942">
        <ele>97</ele>
        <time>2015-06-15T17:29:31.000Z</time>
      </trkpt>
      <trkpt lat="47.84123" lon="3.54974">
        <ele>96.5</ele>
        <time>2015-06-15T17:29:42.000Z</time>
      </trkpt>
      <trkpt lat="47.8413" lon="3.5501">
        <ele>96</ele>
        <time>2015-06-15T17:29:53.000Z</time>
      </trkpt>
      <trkpt lat="47.84129" lon="3.55045">
        <ele>96.4</ele>
        <time>2015-06-15T17:30:01.000Z</time>
      </trkpt>
      <trkpt lat="47.84126" lon="3.55052">
        <ele>96.5</ele>
        <time>2015-06-15T17:30:04.000Z</time>
      </trkpt>
      <trkpt lat="47.84106" lon="3.55061">
        <ele>96</ele>
        <time>2015-06-15T17:30:15.000Z</time>
      </trkpt>
      <trkpt lat="47.841" lon="3.55064">
        <ele>95.9</ele>
        <time>2015-06-15T17:30:18.000Z</time>
      </trkpt>
      <trkpt lat="47.841" lon="3.55066">
        <ele>95.8</ele>
        <time>2015-06-15T17:30:19.000Z</time>
      </trkpt>
      <trkpt lat="47.841" lon="3.55069">
        <ele>95.8</ele>
        <time>2015-06-15T17:30:20.000Z</time>
      </trkpt>
      <trkpt lat="47.84101" lon="3.55072">
        <ele>95.8</ele>
        <time>2015-06-15T17:30:21.000Z</time>
      </trkpt>
      <trkpt lat="47.84102" lon="3.55073">
        <ele>95.8</ele>
        <time>2015-06-15T17:30:22.000Z</time>
      </trkpt>
      <trkpt lat="47.84102" lon="3.55076">
        <ele>95.8</ele>
        <time>2015-06-15T17:30:23.000Z</time>
      </trkpt>
      <trkpt lat="47.84103" lon="3.5508">
        <ele>95.8</ele>
        <time>2015-06-15T17:30:24.000Z</time>
      </trkpt>
      <trkpt lat="47.84105" lon="3.55082">
        <ele>95.8</ele>
        <time>2015-06-15T17:30:25.000Z</time>
      </trkpt>
      <trkpt lat="47.84105" lon="3.55084">
        <ele>95.9</ele>
        <time>2015-06-15T17:30:26.000Z</time>
      </trkpt>
      <trkpt lat="47.84113" lon="3.5511">
        <ele>98.9</ele>
        <time>2015-06-15T17:30:35.000Z</time>
      </trkpt>
      <trkpt lat="47.84116" lon="3.55113">
        <ele>98.8</ele>
        <time>2015-06-15T17:30:36.000Z</time>
      </trkpt>
      <trkpt lat="47.84131" lon="3.55124">
        <ele>97.6</ele>
        <time>2015-06-15T17:30:44.000Z</time>
      </trkpt>
      <trkpt lat="47.84153" lon="3.55128">
        <ele>97</ele>
        <time>2015-06-15T17:30:51.000Z</time>
      </trkpt>
      <trkpt lat="47.84175" lon="3.55128">
        <ele>97.1</ele>
        <time>2015-06-15T17:30:59.000Z</time>
      </trkpt>
      <trkpt lat="47.84193" lon="3.55142">
        <ele>96.8</ele>
        <time>2015-06-15T17:31:10.000Z</time>
      </trkpt>
      <trkpt lat="47.84192" lon="3.55147">
        <ele>96.6</ele>
        <time>2015-06-15T17:31:22.000Z</time>
      </trkpt>
      <trkpt lat="47.84197" lon="3.55176">
        <ele>96.2</ele>
        <time>2015-06-15T17:31:31.000Z</time>
      </trkpt>
      <trkpt lat="47.8421" lon="3.55211">
        <ele>97.7</ele>
        <time>2015-06-15T17:31:43.000Z</time>
      </trkpt>
      <trkpt lat="47.84225" lon="3.55241">
        <ele>97.7</ele>
        <time>2015-06-15T17:31:55.000Z</time>
      </trkpt>
      <trkpt lat="47.84239" lon="3.55274">
        <ele>97.4</ele>
        <time>2015-06-15T17:32:07.000Z</time>
      </trkpt>
      <trkpt lat="47.84259" lon="3.55312">
        <ele>97.3</ele>
        <time>2015-06-15T17:32:18.000Z</time>
      </trkpt>
      <trkpt lat="47.84275" lon="3.5533">
        <ele>97.6</ele>
        <time>2015-06-15T17:32:28.000Z</time>
      </trkpt>
      <trkpt lat="47.84297" lon="3.55354">
        <ele>97.2</ele>
        <time>2015-06-15T17:32:39.000Z</time>
      </trkpt>
      <trkpt lat="47.84321" lon="3.55374">
        <ele>97.1</ele>
        <time>2015-06-15T17:32:48.000Z</time>
      </trkpt>
      <trkpt lat="47.84323" lon="3.55372">
        <ele>97.2</ele>
        <time>2015-06-15T17:32:49.000Z</time>
      </trkpt>
      <trkpt lat="47.84325" lon="3.5537">
        <ele>97.3</ele>
        <time>2015-06-15T17:32:50.000Z</time>
      </trkpt>
      <trkpt lat="47.84325" lon="3.5537">
        <ele>97.4</ele>
        <time>2015-06-15T17:32:51.000Z</time>
      </trkpt>
      <trkpt lat="47.84329" lon="3.5537">
        <ele>97.3</ele>
        <time>2015-06-15T17:32:53.000Z</time>
      </trkpt>
      <trkpt lat="47.8433" lon="3.5537">
        <ele>97.3</ele>
        <time>2015-06-15T17:32:54.000Z</time>
      </trkpt>
      <trkpt lat="47.84331" lon="3.5537">
        <ele>97.4</ele>
        <time>2015-06-15T17:32:55.000Z</time>
      </trkpt>
      <trkpt lat="47.84333" lon="3.55369">
        <ele>97.4</ele>
        <time>2015-06-15T17:32:56.000Z</time>
      </trkpt>
      <trkpt lat="47.84335" lon="3.55365">
        <ele>97.7</ele>
        <time>2015-06-15T17:32:58.000Z</time>
      </trkpt>
      <trkpt lat="47.84335" lon="3.55364">
        <ele>97.8</ele>
        <time>2015-06-15T17:32:59.000Z</time>
      </trkpt>
      <trkpt lat="47.84336" lon="3.55363">
        <ele>97.9</ele>
        <time>2015-06-15T17:33:00.000Z</time>
      </trkpt>
      <trkpt lat="47.84337" lon="3.55363">
        <ele>97.9</ele>
        <time>2015-06-15T17:33:01.000Z</time>
      </trkpt>
      <trkpt lat="47.84339" lon="3.55362">
        <ele>98</ele>
        <time>2015-06-15T17:33:02.000Z</time>
      </trkpt>
      <trkpt lat="47.84339" lon="3.5536">
        <ele>98</ele>
        <time>2015-06-15T17:33:03.000Z</time>
      </trkpt>
      <trkpt lat="47.84342" lon="3.55359">
        <ele>97.9</ele>
        <time>2015-06-15T17:33:05.000Z</time>
      </trkpt>
    </trkseg>
  </trk>
</gpx>